Time;durP1;ratioP1;P1;durP2;ratioP2;P2;SDS_P1;SDS_P2;PMS_P1;PMS_P2;Temp;Humidity;BMP_temperature;BMP_pressure;BME280_temperature;BME280_humidity;BME280_pressure;Samples;Min_cycle;Max_cycle;Signal;HPM_P1;HPM_P2
2024/03/23 00:01:42;;;;;;;225.50;64.60;;;;;;;;;;5011888;28;20187;-43
2024/03/23 00:04:09;;;;;;;223.23;63.10;;;;;;;;;;5011851;28;20182;-43
2024/03/23 00:06:35;;;;;;;230.38;71.43;;;;;;;;;;5011229;28;20215;-43
2024/03/23 00:09:02;;;;;;;227.63;69.05;;;;;;;;;;5011711;28;20191;-43
2024/03/23 00:11:28;;;;;;;226.73;65.57;;;;;;;;;;5011721;28;20172;-43
2024/03/23 00:13:54;;;;;;;226.98;68.13;;;;;;;;;;5012087;28;20547;-43
2024/03/23 00:16:25;;;;;;;222.77;63.25;;;;;;;;;;5011649;28;20205;-43
2024/03/23 00:18:51;;;;;;;225.13;66.72;;;;;;;;;;5011850;28;20769;-43
2024/03/23 00:21:18;;;;;;;228.02;69.13;;;;;;;;;;5011706;28;20186;-43
2024/03/23 00:23:44;;;;;;;225.20;65.50;;;;;;;;;;5003508;28;20190;-43
2024/03/23 00:26:11;;;;;;;227.02;67.03;;;;;;;;;;5011467;28;20578;-43
2024/03/23 00:28:37;;;;;;;226.45;67.93;;;;;;;;;;5011463;28;20209;-43
2024/03/23 00:31:03;;;;;;;222.90;62.75;;;;;;;;;;5011489;28;20600;-43
2024/03/23 00:33:30;;;;;;;229.77;68.97;;;;;;;;;;5011466;28;20176;-43
2024/03/23 00:35:56;;;;;;;227.13;66.40;;;;;;;;;;5011095;28;20638;-44
2024/03/23 00:38:24;;;;;;;225.70;66.35;;;;;;;;;;5011463;28;20178;-43
2024/03/23 00:40:51;;;;;;;222.65;63.38;;;;;;;;;;5011373;28;20211;-43
2024/03/23 00:43:17;;;;;;;223.60;66.35;;;;;;;;;;5011226;28;20179;-43
2024/03/23 00:45:44;;;;;;;222.88;63.25;;;;;;;;;;5010916;28;20239;-43
2024/03/23 00:48:10;;;;;;;228.23;71.05;;;;;;;;;;5011128;28;20289;-43
2024/03/23 00:50:37;;;;;;;223.77;64.47;;;;;;;;;;5011070;28;20179;-43
2024/03/23 00:53:03;;;;;;;224.98;66.72;;;;;;;;;;5011171;28;20257;-43
2024/03/23 00:55:29;;;;;;;225.48;67.25;;;;;;;;;;5011193;28;20548;-42
2024/03/23 00:57:55;;;;;;;225.13;64.83;;;;;;;;;;5010516;28;20743;-43
2024/03/23 01:00:21;;;;;;;225.33;64.90;;;;;;;;;;5011075;28;20923;-43
2024/03/23 01:02:47;;;;;;;222.00;63.40;;;;;;;;;;5011264;28;20889;-42
2024/03/23 01:05:13;;;;;;;227.93;66.33;;;;;;;;;;5010791;28;20758;-43
2024/03/23 01:07:39;;;;;;;225.10;68.10;;;;;;;;;;5010772;28;20481;-43
2024/03/23 01:10:05;;;;;;;225.57;67.20;;;;;;;;;;5011003;28;20409;-43
2024/03/23 01:12:31;;;;;;;223.32;62.60;;;;;;;;;;5010953;28;20793;-43
2024/03/23 01:14:57;;;;;;;224.75;66.30;;;;;;;;;;5014934;28;20175;-44
2024/03/23 01:17:23;;;;;;;222.20;63.60;;;;;;;;;;5014566;28;20199;-43
2024/03/23 01:19:49;;;;;;;227.23;68.57;;;;;;;;;;5014701;28;20547;-43
2024/03/23 01:22:15;;;;;;;222.82;64.47;;;;;;;;;;5015023;28;20801;-43
2024/03/23 01:24:41;;;;;;;222.88;65.07;;;;;;;;;;5014941;28;20175;-43
2024/03/23 01:27:07;;;;;;;225.83;70.63;;;;;;;;;;5014743;28;20211;-43
2024/03/23 01:29:33;;;;;;;224.30;65.95;;;;;;;;;;5014780;28;20410;-43
2024/03/23 01:31:59;;;;;;;222.87;64.20;;;;;;;;;;5014706;28;20182;-43
2024/03/23 01:34:25;;;;;;;225.47;66.70;;;;;;;;;;5014482;28;20414;-43
2024/03/23 01:36:51;;;;;;;221.07;62.95;;;;;;;;;;5014208;28;20463;-43
2024/03/23 01:39:17;;;;;;;221.02;62.45;;;;;;;;;;5014555;28;20177;-43
2024/03/23 01:41:43;;;;;;;222.63;68.00;;;;;;;;;;5014585;28;20226;-42
2024/03/23 01:44:09;;;;;;;221.53;63.37;;;;;;;;;;5014486;28;20414;-43
2024/03/23 01:46:36;;;;;;;221.90;62.25;;;;;;;;;;5014257;28;20476;-43
2024/03/23 01:49:02;;;;;;;226.27;68.57;;;;;;;;;;5014373;28;20293;-43
2024/03/23 01:51:28;;;;;;;224.45;64.78;;;;;;;;;;5014339;28;20184;-43
2024/03/23 01:53:54;;;;;;;223.05;65.07;;;;;;;;;;5014219;28;20297;-43
2024/03/23 01:56:21;;;;;;;220.20;62.33;;;;;;;;;;5013931;28;20212;-43
2024/03/23 01:58:47;;;;;;;226.18;67.85;;;;;;;;;;5014157;28;20184;-43
2024/03/23 02:01:13;;;;;;;221.23;63.50;;;;;;;;;;5013755;28;20713;-43
2024/03/23 02:03:39;;;;;;;228.33;69.30;;;;;;;;;;5013544;28;20490;-44
2024/03/23 02:06:07;;;;;;;222.77;66.23;;;;;;;;;;5013350;28;20463;-43
2024/03/23 02:08:33;;;;;;;224.15;66.22;;;;;;;;;;5013235;28;20551;-43
2024/03/23 02:10:59;;;;;;;224.80;66.18;;;;;;;;;;5014015;28;20247;-43
2024/03/23 02:13:25;;;;;;;226.07;66.35;;;;;;;;;;5013830;28;20185;-43
2024/03/23 02:15:51;;;;;;;224.27;65.17;;;;;;;;;;5013485;28;20179;-43
2024/03/23 02:18:17;;;;;;;219.20;61.50;;;;;;;;;;5013769;28;20502;-43
2024/03/23 02:20:43;;;;;;;221.00;63.10;;;;;;;;;;5013661;28;20418;-43
2024/03/23 02:23:18;;;;;;;221.57;63.72;;;;;;;;;;5013733;28;20416;-43
2024/03/23 02:25:44;;;;;;;224.25;65.05;;;;;;;;;;5012191;28;20178;-43
2024/03/23 02:28:10;;;;;;;221.80;62.58;;;;;;;;;;5013534;28;20197;-43
2024/03/23 02:30:36;;;;;;;221.57;61.97;;;;;;;;;;5014287;28;20170;-43
2024/03/23 02:33:02;;;;;;;220.40;62.10;;;;;;;;;;5013627;28;20670;-43
2024/03/23 02:35:28;;;;;;;223.40;64.63;;;;;;;;;;5013403;28;20442;-43
2024/03/23 02:37:56;;;;;;;223.38;65.85;;;;;;;;;;5013303;28;20437;-43
2024/03/23 02:40:22;;;;;;;223.20;64.57;;;;;;;;;;5013405;28;20183;-43
2024/03/23 02:42:48;;;;;;;221.05;62.38;;;;;;;;;;5013292;28;20202;-43
2024/03/23 02:45:14;;;;;;;229.77;68.40;;;;;;;;;;5013043;28;20216;-43
2024/03/23 02:47:40;;;;;;;225.52;67.88;;;;;;;;;;5013229;28;20524;-43
2024/03/23 02:50:06;;;;;;;222.53;64.80;;;;;;;;;;5013334;28;20178;-43
2024/03/23 02:52:32;;;;;;;224.82;66.82;;;;;;;;;;5013317;28;20452;-44
2024/03/23 02:54:58;;;;;;;226.13;66.60;;;;;;;;;;5013048;28;20579;-43
2024/03/23 02:57:24;;;;;;;225.85;69.25;;;;;;;;;;5012319;28;20979;-43
2024/03/23 02:59:51;;;;;;;226.13;69.00;;;;;;;;;;5012839;28;20224;-43
2024/03/23 03:02:17;;;;;;;223.63;65.57;;;;;;;;;;5013166;28;20319;-43
2024/03/23 03:04:43;;;;;;;222.03;63.33;;;;;;;;;;5012863;28;20682;-43
2024/03/23 03:07:09;;;;;;;223.03;64.83;;;;;;;;;;5012257;28;20467;-43
2024/03/23 03:09:35;;;;;;;223.98;67.15;;;;;;;;;;5012809;28;20405;-43
2024/03/23 03:12:04;;;;;;;224.73;66.70;;;;;;;;;;5012800;28;20201;-43
2024/03/23 03:14:30;;;;;;;223.63;66.10;;;;;;;;;;5012828;28;20178;-43
2024/03/23 03:16:56;;;;;;;225.30;69.23;;;;;;;;;;5012644;28;20205;-43
2024/03/23 03:19:22;;;;;;;225.77;68.38;;;;;;;;;;5012514;28;20417;-43
2024/03/23 03:21:49;;;;;;;222.57;66.40;;;;;;;;;;5012696;28;20179;-43
2024/03/23 03:24:15;;;;;;;220.18;63.63;;;;;;;;;;5012595;28;20420;-43
2024/03/23 03:26:41;;;;;;;223.77;64.90;;;;;;;;;;5012008;28;20190;-43
2024/03/23 03:29:07;;;;;;;226.15;68.22;;;;;;;;;;5012445;28;20410;-43
2024/03/23 03:31:33;;;;;;;224.37;67.53;;;;;;;;;;5012572;28;20554;-43
2024/03/23 03:33:59;;;;;;;225.43;66.83;;;;;;;;;;5012442;28;20490;-43
2024/03/23 03:36:26;;;;;;;227.40;68.00;;;;;;;;;;5011837;28;20433;-43
2024/03/23 03:38:52;;;;;;;222.15;63.97;;;;;;;;;;5012476;28;20427;-43
2024/03/23 03:41:18;;;;;;;222.00;66.20;;;;;;;;;;5012263;28;20195;-43
2024/03/23 03:43:46;;;;;;;221.25;63.15;;;;;;;;;;5012289;28;20825;-43
2024/03/23 03:46:12;;;;;;;221.60;62.53;;;;;;;;;;5012001;28;20233;-43
2024/03/23 03:48:38;;;;;;;221.77;64.13;;;;;;;;;;5011930;28;20682;-43
2024/03/23 03:51:04;;;;;;;219.43;61.20;;;;;;;;;;5012090;28;20925;-43
2024/03/23 03:53:30;;;;;;;220.52;61.97;;;;;;;;;;5012104;28;20260;-43
2024/03/23 03:55:56;;;;;;;220.32;61.97;;;;;;;;;;5011776;28;20603;-43
2024/03/23 03:58:22;;;;;;;222.73;64.40;;;;;;;;;;5011996;28;20189;-43
2024/03/23 04:00:48;;;;;;;227.40;68.10;;;;;;;;;;5012090;28;20189;-43
2024/03/23 04:03:16;;;;;;;223.00;64.23;;;;;;;;;;5010347;28;20523;-43
2024/03/23 04:05:43;;;;;;;222.52;66.00;;;;;;;;;;5011337;28;20958;-43
2024/03/23 04:08:09;;;;;;;225.73;66.95;;;;;;;;;;5011738;28;20223;-43
2024/03/23 04:10:35;;;;;;;231.93;70.70;;;;;;;;;;5009604;28;20178;-43
2024/03/23 04:13:01;;;;;;;225.37;70.70;;;;;;;;;;5011290;28;20407;-43
2024/03/23 04:15:27;;;;;;;224.07;67.93;;;;;;;;;;5011428;28;20452;-43
2024/03/23 04:17:53;;;;;;;224.65;67.75;;;;;;;;;;5011389;28;20241;-43
2024/03/23 04:20:19;;;;;;;227.90;73.13;;;;;;;;;;5011500;28;20185;-44
2024/03/23 04:22:45;;;;;;;222.43;67.90;;;;;;;;;;5011885;28;20450;-43
2024/03/23 04:25:12;;;;;;;226.53;69.23;;;;;;;;;;5011300;28;20418;-43
2024/03/23 04:27:38;;;;;;;224.30;66.65;;;;;;;;;;5011142;28;20474;-43
2024/03/23 04:30:10;;;;;;;220.03;64.90;;;;;;;;;;5011413;28;20172;-43
2024/03/23 04:32:38;;;;;;;223.18;67.03;;;;;;;;;;5010303;28;20396;-43
2024/03/23 04:35:09;;;;;;;235.90;75.07;;;;;;;;;;5011051;28;20177;-43
2024/03/23 04:37:35;;;;;;;228.38;73.32;;;;;;;;;;5011127;28;20208;-43
2024/03/23 04:40:03;;;;;;;225.80;70.45;;;;;;;;;;5011443;28;20184;-44
2024/03/23 04:42:29;;;;;;;223.73;68.55;;;;;;;;;;5011229;28;20176;-43
2024/03/23 04:44:55;;;;;;;223.00;65.47;;;;;;;;;;5011225;28;20207;-43
2024/03/23 04:47:21;;;;;;;227.20;73.10;;;;;;;;;;5010426;28;20491;-43
2024/03/23 04:49:47;;;;;;;227.35;72.90;;;;;;;;;;5010829;28;20398;-43
2024/03/23 04:52:13;;;;;;;222.30;65.65;;;;;;;;;;5010902;28;20173;-43
2024/03/23 04:54:42;;;;;;;225.63;69.90;;;;;;;;;;5011037;28;20188;-43
2024/03/23 04:57:08;;;;;;;224.52;67.68;;;;;;;;;;5010698;28;20442;-43
2024/03/23 04:59:34;;;;;;;223.07;66.20;;;;;;;;;;5011033;28;20172;-43
2024/03/23 05:02:00;;;;;;;224.98;68.05;;;;;;;;;;5011053;28;20775;-43
2024/03/23 05:04:27;;;;;;;221.18;64.25;;;;;;;;;;5012776;28;20650;-43
2024/03/23 05:06:53;;;;;;;219.55;63.90;;;;;;;;;;5010227;28;20299;-43
2024/03/23 05:09:19;;;;;;;219.48;63.50;;;;;;;;;;5011142;28;20195;-43
2024/03/23 05:11:46;;;;;;;222.30;65.85;;;;;;;;;;5008714;28;20174;-43
2024/03/23 05:14:14;;;;;;;223.18;66.30;;;;;;;;;;5011019;28;20191;-49
2024/03/23 05:16:41;;;;;;;226.88;70.95;;;;;;;;;;5010413;28;20221;-43
2024/03/23 05:19:08;;;;;;;222.60;64.68;;;;;;;;;;5010774;28;20547;-43
2024/03/23 05:21:34;;;;;;;222.95;66.97;;;;;;;;;;5009535;28;20676;-44
2024/03/23 05:24:00;;;;;;;222.25;65.72;;;;;;;;;;5010711;28;20272;-43
2024/03/23 05:26:26;;;;;;;223.73;69.22;;;;;;;;;;5010478;28;20236;-43
2024/03/23 05:28:52;;;;;;;222.00;63.92;;;;;;;;;;5010687;28;20202;-44
2024/03/23 05:31:25;;;;;;;218.57;61.40;;;;;;;;;;5010753;28;20177;-43
2024/03/23 05:33:53;;;;;;;223.77;65.93;;;;;;;;;;5009077;28;20408;-43
2024/03/23 05:36:19;;;;;;;223.60;67.97;;;;;;;;;;5010457;28;20209;-43
2024/03/23 05:38:45;;;;;;;220.35;63.17;;;;;;;;;;5010636;28;20177;-43
2024/03/23 05:41:11;;;;;;;222.23;66.03;;;;;;;;;;5010759;28;20203;-43
2024/03/23 05:43:38;;;;;;;222.27;64.57;;;;;;;;;;5010427;28;20416;-43
2024/03/23 05:46:10;;;;;;;220.40;62.70;;;;;;;;;;5010262;28;20455;-43
2024/03/23 05:48:36;;;;;;;223.13;66.38;;;;;;;;;;5010278;28;20223;-44
2024/03/23 05:51:08;;;;;;;224.05;68.25;;;;;;;;;;5010625;28;20252;-44
2024/03/23 05:53:35;;;;;;;221.95;65.93;;;;;;;;;;5010673;28;20183;-43
2024/03/23 05:56:06;;;;;;;223.85;66.75;;;;;;;;;;5010261;28;20180;-43
2024/03/23 05:58:33;;;;;;;223.00;65.68;;;;;;;;;;5010380;28;20173;-43
2024/03/23 06:01:01;;;;;;;224.65;66.88;;;;;;;;;;5014004;28;20608;-44
2024/03/23 06:03:27;;;;;;;222.38;66.38;;;;;;;;;;5014015;28;20255;-43
2024/03/23 06:05:54;;;;;;;219.48;63.05;;;;;;;;;;5013617;28;20188;-43
2024/03/23 06:08:20;;;;;;;216.50;60.58;;;;;;;;;;5013837;28;20259;-43
2024/03/23 06:10:47;;;;;;;222.83;66.57;;;;;;;;;;5013874;28;20641;-43
2024/03/23 06:13:13;;;;;;;222.70;66.13;;;;;;;;;;5014001;28;20432;-43
2024/03/23 06:15:40;;;;;;;221.77;64.43;;;;;;;;;;5013490;28;20181;-43
2024/03/23 06:18:07;;;;;;;218.45;62.47;;;;;;;;;;5013652;28;20647;-43
2024/03/23 06:20:33;;;;;;;222.10;64.25;;;;;;;;;;5013710;28;20518;-43
2024/03/23 06:23:02;;;;;;;221.45;63.83;;;;;;;;;;5017401;22;20336;-45
2024/03/23 06:25:29;;;;;;;219.20;63.65;;;;;;;;;;4991862;28;20422;-44
2024/03/23 06:27:55;;;;;;;219.82;63.78;;;;;;;;;;4993780;28;20206;-44
2024/03/23 06:30:21;;;;;;;220.30;65.13;;;;;;;;;;4993932;28;20262;-45
2024/03/23 06:32:48;;;;;;;221.20;65.72;;;;;;;;;;4993841;28;20195;-45
2024/03/23 06:35:14;;;;;;;220.95;64.05;;;;;;;;;;4993891;28;20169;-44
2024/03/23 06:37:40;;;;;;;220.30;63.15;;;;;;;;;;4993854;28;20242;-44
2024/03/23 06:40:10;;;;;;;223.15;66.90;;;;;;;;;;4993828;28;20177;-45
2024/03/23 06:42:37;;;;;;;219.35;61.30;;;;;;;;;;4993727;28;20190;-46
2024/03/23 06:45:04;;;;;;;219.70;63.30;;;;;;;;;;4993582;28;20173;-45
2024/03/23 06:47:32;;;;;;;225.95;67.80;;;;;;;;;;4992289;28;20222;-44
2024/03/23 06:50:01;;;;;;;216.15;60.92;;;;;;;;;;4993278;28;20227;-44
2024/03/23 06:52:28;;;;;;;220.40;65.63;;;;;;;;;;4993730;28;20181;-45
2024/03/23 06:54:54;;;;;;;221.00;65.63;;;;;;;;;;4993443;28;20186;-44
2024/03/23 06:57:21;;;;;;;220.10;64.10;;;;;;;;;;4993051;28;20169;-44
2024/03/23 06:59:47;;;;;;;220.50;64.15;;;;;;;;;;4997405;28;20174;-45
2024/03/23 07:02:15;;;;;;;222.98;65.63;;;;;;;;;;4994266;28;20244;-47
2024/03/23 07:04:42;;;;;;;220.85;64.75;;;;;;;;;;4993344;28;20212;-44
2024/03/23 07:07:09;;;;;;;221.13;64.30;;;;;;;;;;4992621;28;20228;-47
2024/03/23 07:09:35;;;;;;;227.60;70.75;;;;;;;;;;4993503;28;20213;-45
2024/03/23 07:12:01;;;;;;;222.90;65.03;;;;;;;;;;4992275;28;20175;-46
2024/03/23 07:14:28;;;;;;;220.95;63.95;;;;;;;;;;4992878;28;20502;-46
2024/03/23 07:16:54;;;;;;;221.13;63.65;;;;;;;;;;4999403;28;20217;-44
2024/03/23 07:19:20;;;;;;;223.17;63.73;;;;;;;;;;4993244;28;20168;-44
2024/03/23 07:21:47;;;;;;;222.43;62.57;;;;;;;;;;4992964;28;20424;-44
2024/03/23 07:24:13;;;;;;;229.00;74.35;;;;;;;;;;4993594;28;20833;-46
2024/03/23 07:26:39;;;;;;;229.67;72.43;;;;;;;;;;4991249;28;20581;-45
2024/03/23 07:29:09;;;;;;;231.90;75.27;;;;;;;;;;4992615;28;21030;-46
2024/03/23 07:31:38;;;;;;;235.77;77.07;;;;;;;;;;4992833;28;20780;-45
2024/03/23 07:34:07;;;;;;;233.38;72.43;;;;;;;;;;4987516;28;20184;-45
2024/03/23 07:36:33;;;;;;;235.65;76.50;;;;;;;;;;4992375;28;20177;-45
2024/03/23 07:39:00;;;;;;;232.88;75.78;;;;;;;;;;4992708;28;20648;-45
2024/03/23 07:41:27;;;;;;;233.00;73.83;;;;;;;;;;4992503;28;20197;-44
2024/03/23 07:43:55;;;;;;;234.55;77.05;;;;;;;;;;4992426;28;20434;-44
2024/03/23 07:46:21;;;;;;;236.88;78.40;;;;;;;;;;4992266;28;20173;-47
2024/03/23 07:48:49;;;;;;;239.25;83.75;;;;;;;;;;4992564;28;20543;-45
2024/03/23 07:51:18;;;;;;;237.60;81.53;;;;;;;;;;4992523;28;20163;-44
2024/03/23 07:53:46;;;;;;;236.73;77.60;;;;;;;;;;4995858;28;20211;-46
2024/03/23 07:56:15;;;;;;;237.30;76.03;;;;;;;;;;4992290;28;20396;-47
2024/03/23 07:58:40;;;;;;;237.30;79.80;;;;;;;;;;4999076;28;20503;-44
2024/03/23 08:01:10;;;;;;;243.37;85.03;;;;;;;;;;4992472;28;20476;-45
2024/03/23 08:03:37;;;;;;;239.97;79.93;;;;;;;;;;4992357;28;20439;-45
2024/03/23 08:06:09;;;;;;;241.47;81.80;;;;;;;;;;4992132;28;20423;-44
2024/03/23 08:08:35;;;;;;;245.57;86.07;;;;;;;;;;4991994;28;20534;-44
2024/03/23 08:11:01;;;;;;;241.67;81.63;;;;;;;;;;4992344;28;20412;-44
2024/03/23 08:13:27;;;;;;;237.63;78.00;;;;;;;;;;4991929;28;20470;-44
2024/03/23 08:15:58;;;;;;;237.40;79.07;;;;;;;;;;4992150;28;20462;-45
2024/03/23 08:18:25;;;;;;;238.07;79.07;;;;;;;;;;4991973;28;20459;-44
2024/03/23 08:21:02;;;;;;;237.57;78.47;;;;;;;;;;4991997;28;20787;-45
2024/03/23 08:23:28;;;;;;;237.67;78.93;;;;;;;;;;4990832;28;20960;-44
2024/03/23 08:26:04;;;;;;;238.30;77.90;;;;;;;;;;4990873;28;20439;-45
2024/03/23 08:28:30;;;;;;;240.37;82.30;;;;;;;;;;4987899;28;20463;-46
2024/03/23 08:30:56;;;;;;;237.27;79.50;;;;;;;;;;4993781;28;20455;-48
2024/03/23 08:33:28;;;;;;;237.73;79.90;;;;;;;;;;4991486;28;20427;-48
2024/03/23 08:35:59;;;;;;;242.13;85.10;;;;;;;;;;4991394;28;20416;-47
2024/03/23 08:38:26;;;;;;;235.13;76.37;;;;;;;;;;4991566;28;20412;-47
2024/03/23 08:40:58;;;;;;;240.37;80.20;;;;;;;;;;4991644;28;20407;-46
2024/03/23 08:43:24;;;;;;;234.52;77.50;;;;;;;;;;4991650;28;20427;-46
2024/03/23 08:45:50;;;;;;;238.27;76.80;;;;;;;;;;4992622;28;20177;-46
2024/03/23 08:48:16;;;;;;;236.77;77.83;;;;;;;;;;4990954;28;20518;-46
2024/03/23 08:50:42;;;;;;;237.57;79.73;;;;;;;;;;4991231;28;20408;-46
2024/03/23 08:53:08;;;;;;;234.63;77.83;;;;;;;;;;4991571;28;20423;-46
2024/03/23 08:55:35;;;;;;;237.87;79.77;;;;;;;;;;4990963;28;20422;-47
2024/03/23 08:58:01;;;;;;;240.50;84.00;;;;;;;;;;4991224;28;20906;-46
2024/03/23 09:00:27;;;;;;;240.38;84.15;;;;;;;;;;4991784;28;20417;-46
2024/03/23 09:02:53;;;;;;;235.80;79.20;;;;;;;;;;4991010;28;20194;-45
2024/03/23 09:05:19;;;;;;;235.15;76.50;;;;;;;;;;4990997;28;20445;-46
2024/03/23 09:07:45;;;;;;;232.25;73.88;;;;;;;;;;4991060;28;20201;-45
2024/03/23 09:10:12;;;;;;;234.97;78.93;;;;;;;;;;4989226;28;20617;-46
2024/03/23 09:12:38;;;;;;;235.90;78.10;;;;;;;;;;4988879;28;20450;-45
2024/03/23 09:15:04;;;;;;;229.57;69.87;;;;;;;;;;4987370;28;20180;-45
2024/03/23 09:17:30;;;;;;;234.40;75.55;;;;;;;;;;4990380;28;20505;-46
2024/03/23 09:19:56;;;;;;;231.63;73.55;;;;;;;;;;4991212;28;20206;-46
2024/03/23 09:22:22;;;;;;;228.67;70.67;;;;;;;;;;4991050;28;20971;-46
2024/03/23 09:24:48;;;;;;;230.50;73.20;;;;;;;;;;4992533;28;20908;-46
2024/03/23 09:27:14;;;;;;;228.50;72.93;;;;;;;;;;4990952;28;20933;-46
2024/03/23 09:29:40;;;;;;;228.90;70.45;;;;;;;;;;4990909;28;20429;-47
2024/03/23 09:32:06;;;;;;;229.33;71.80;;;;;;;;;;4991032;28;20557;-45
2024/03/23 09:34:32;;;;;;;231.55;76.38;;;;;;;;;;4992555;28;20410;-46
2024/03/23 09:36:59;;;;;;;226.17;70.83;;;;;;;;;;4994641;28;20666;-45
2024/03/23 09:39:25;;;;;;;226.27;69.30;;;;;;;;;;4994652;28;20428;-45
2024/03/23 09:41:57;;;;;;;225.73;70.50;;;;;;;;;;4994818;28;20187;-46
2024/03/23 09:44:23;;;;;;;225.27;70.10;;;;;;;;;;4994817;28;20404;-45
2024/03/23 09:46:49;;;;;;;226.73;69.78;;;;;;;;;;4994804;28;20192;-45
2024/03/23 09:49:15;;;;;;;231.90;74.80;;;;;;;;;;4994711;28;20196;-46
2024/03/23 09:51:41;;;;;;;229.07;72.47;;;;;;;;;;4994647;28;20534;-46
2024/03/23 09:54:07;;;;;;;230.10;71.87;;;;;;;;;;4994597;28;20782;-46
2024/03/23 09:56:34;;;;;;;237.10;78.15;;;;;;;;;;4994208;28;20410;-46
2024/03/23 09:59:03;;;;;;;243.03;83.03;;;;;;;;;;4994353;28;20181;-45
2024/03/23 10:01:32;;;;;;;238.33;77.57;;;;;;;;;;4994766;28;20544;-46
2024/03/23 10:03:58;;;;;;;239.00;78.13;;;;;;;;;;4994552;28;20505;-47
2024/03/23 10:06:27;;;;;;;242.80;81.97;;;;;;;;;;4994219;28;20834;-48
2024/03/23 10:08:54;;;;;;;243.27;85.03;;;;;;;;;;4994395;28;20494;-46
2024/03/23 10:11:22;;;;;;;245.47;86.50;;;;;;;;;;4994472;28;20443;-48
2024/03/23 10:13:48;;;;;;;246.27;84.50;;;;;;;;;;4994083;28;20435;-46
2024/03/23 10:16:24;;;;;;;243.67;83.33;;;;;;;;;;4992752;28;20921;-47
2024/03/23 10:18:50;;;;;;;243.33;84.83;;;;;;;;;;4986759;28;20449;-46
2024/03/23 10:21:17;;;;;;;241.27;81.90;;;;;;;;;;4994163;28;20410;-46
2024/03/23 10:23:44;;;;;;;242.87;83.17;;;;;;;;;;4993585;28;20465;-46
2024/03/23 10:26:22;;;;;;;244.40;85.23;;;;;;;;;;4993718;28;20410;-46
2024/03/23 10:28:54;;;;;;;244.23;84.90;;;;;;;;;;4993730;28;20458;-46
2024/03/23 10:31:21;;;;;;;241.23;81.10;;;;;;;;;;4994135;28;20926;-46
2024/03/23 10:33:48;;;;;;;244.37;85.47;;;;;;;;;;4994289;28;20425;-47
2024/03/23 10:36:14;;;;;;;241.97;82.83;;;;;;;;;;4993841;28;20531;-47
2024/03/23 10:38:44;;;;;;;245.50;87.70;;;;;;;;;;4993256;28;20411;-46
2024/03/23 10:41:11;;;;;;;242.03;83.07;;;;;;;;;;4993015;28;20453;-47
2024/03/23 10:43:38;;;;;;;243.30;84.23;;;;;;;;;;4993651;28;20431;-46
2024/03/23 10:46:04;;;;;;;240.13;79.33;;;;;;;;;;4992195;28;20468;-47
2024/03/23 10:48:31;;;;;;;241.90;83.70;;;;;;;;;;4993595;28;20546;-46
2024/03/23 10:50:58;;;;;;;237.13;79.20;;;;;;;;;;4993607;28;20408;-46
2024/03/23 10:53:29;;;;;;;242.83;84.40;;;;;;;;;;4993540;28;20443;-46
2024/03/23 10:55:55;;;;;;;237.87;77.53;;;;;;;;;;4993464;28;20409;-47
2024/03/23 10:58:32;;;;;;;240.83;79.97;;;;;;;;;;4993415;28;20420;-47
2024/03/23 11:00:59;;;;;;;242.80;83.83;;;;;;;;;;4993826;28;20413;-47
2024/03/23 11:03:37;;;;;;;242.63;86.37;;;;;;;;;;4993312;28;20437;-46
2024/03/23 11:06:08;;;;;;;239.57;81.47;;;;;;;;;;4993155;28;20412;-46
2024/03/23 11:08:38;;;;;;;242.43;84.10;;;;;;;;;;4993285;28;20880;-45
2024/03/23 11:11:14;;;;;;;245.03;89.33;;;;;;;;;;4993356;28;20728;-43
2024/03/23 11:13:40;;;;;;;246.57;94.72;;;;;;;;;;4993163;28;20424;-44
2024/03/23 11:16:16;;;;;;;238.20;84.43;;;;;;;;;;4992107;28;20180;-44
2024/03/23 11:18:43;;;;;;;238.85;88.80;;;;;;;;;;4993040;28;20411;-44
2024/03/23 11:21:09;;;;;;;234.63;84.43;;;;;;;;;;4993078;28;20644;-43
2024/03/23 11:23:35;;;;;;;232.13;83.50;;;;;;;;;;4992749;28;20254;-45
2024/03/23 11:26:01;;;;;;;232.07;85.70;;;;;;;;;;4992613;28;20916;-44
2024/03/23 11:28:27;;;;;;;226.57;77.83;;;;;;;;;;4992708;28;20492;-45
2024/03/23 11:30:53;;;;;;;231.30;81.53;;;;;;;;;;4992412;28;20858;-46
2024/03/23 11:33:19;;;;;;;226.77;78.80;;;;;;;;;;4992904;28;20790;-45
2024/03/23 11:35:45;;;;;;;225.23;69.75;;;;;;;;;;4992368;28;20423;-45
2024/03/23 11:38:12;;;;;;;229.47;72.03;;;;;;;;;;4992894;28;20172;-45
2024/03/23 11:40:39;;;;;;;233.60;77.13;;;;;;;;;;4992534;28;20413;-47
2024/03/23 11:43:06;;;;;;;234.97;77.27;;;;;;;;;;4992379;28;20428;-45
2024/03/23 11:45:55;;;;;;;239.40;82.13;;;;;;;;;;4992015;28;20792;-46
2024/03/23 11:48:21;;;;;;;235.90;77.47;;;;;;;;;;4992520;28;20456;-47
2024/03/23 11:50:48;;;;;;;239.80;82.57;;;;;;;;;;4992820;28;20408;-48
2024/03/23 11:53:22;;;;;;;242.90;86.00;;;;;;;;;;4988827;28;20937;-47
2024/03/23 11:55:53;;;;;;;244.60;87.30;;;;;;;;;;4987172;28;20441;-46
2024/03/23 11:58:22;;;;;;;241.77;85.10;;;;;;;;;;4991924;28;20442;-46
2024/03/23 12:01:04;;;;;;;241.27;85.70;;;;;;;;;;4984844;28;20439;-47
2024/03/23 12:03:32;;;;;;;243.27;85.37;;;;;;;;;;4991919;28;20430;-48
2024/03/23 12:06:00;;;;;;;246.87;93.87;;;;;;;;;;4992254;28;20415;-46
2024/03/23 12:08:31;;;;;;;246.47;88.33;;;;;;;;;;4991485;28;20660;-46
2024/03/23 12:11:07;;;;;;;245.97;88.57;;;;;;;;;;4990789;28;20415;-46
2024/03/23 12:13:34;;;;;;;253.43;99.30;;;;;;;;;;4990271;28;20542;-48
2024/03/23 12:16:12;;;;;;;243.97;87.37;;;;;;;;;;4991492;28;20999;-49
2024/03/23 12:18:39;;;;;;;245.67;89.50;;;;;;;;;;4990592;28;20414;-47
2024/03/23 12:21:05;;;;;;;244.30;87.90;;;;;;;;;;4991240;28;20437;-47
2024/03/23 12:23:32;;;;;;;244.17;85.87;;;;;;;;;;5013026;22;20998;-47
2024/03/23 12:25:59;;;;;;;243.77;85.77;;;;;;;;;;4991137;28;20415;-46
2024/03/23 12:28:25;;;;;;;243.83;84.47;;;;;;;;;;4991688;28;20552;-46
2024/03/23 12:30:52;;;;;;;243.90;87.00;;;;;;;;;;4991585;28;20857;-46
2024/03/23 12:33:18;;;;;;;238.20;76.30;;;;;;;;;;4991713;28;20431;-46
2024/03/23 12:35:44;;;;;;;238.90;78.67;;;;;;;;;;4991414;28;20432;-45
2024/03/23 12:38:12;;;;;;;235.33;74.17;;;;;;;;;;4991763;28;21017;-46
2024/03/23 12:40:38;;;;;;;236.20;76.00;;;;;;;;;;4991486;28;20447;-46
2024/03/23 12:43:04;;;;;;;231.87;70.30;;;;;;;;;;4990108;28;20223;-45
2024/03/23 12:45:29;;;;;;;236.47;75.07;;;;;;;;;;4991064;28;20411;-45
2024/03/23 12:47:55;;;;;;;234.90;77.50;;;;;;;;;;4991677;28;20480;-46
2024/03/23 12:50:21;;;;;;;232.43;74.43;;;;;;;;;;4991321;28;20817;-46
2024/03/23 12:52:48;;;;;;;237.90;80.40;;;;;;;;;;4991098;28;20915;-47
2024/03/23 12:55:15;;;;;;;240.17;82.10;;;;;;;;;;4990705;28;20201;-46
2024/03/23 12:57:41;;;;;;;237.53;79.53;;;;;;;;;;4991297;28;20501;-46
2024/03/23 13:00:11;;;;;;;238.87;80.23;;;;;;;;;;4991641;28;20814;-46
2024/03/23 13:02:38;;;;;;;239.17;81.63;;;;;;;;;;4991486;28;20438;-46
2024/03/23 13:05:04;;;;;;;252.57;93.67;;;;;;;;;;4985329;28;20420;-46
2024/03/23 13:07:30;;;;;;;241.73;82.80;;;;;;;;;;4989295;28;20456;-46
2024/03/23 13:09:56;;;;;;;245.40;90.80;;;;;;;;;;4993623;28;20419;-47
2024/03/23 13:12:22;;;;;;;245.07;86.87;;;;;;;;;;4995187;28;20409;-47
2024/03/23 13:14:50;;;;;;;242.30;86.60;;;;;;;;;;4995547;28;20425;-47
2024/03/23 13:17:16;;;;;;;236.23;77.03;;;;;;;;;;4995016;28;20905;-46
2024/03/23 13:19:42;;;;;;;255.63;94.87;;;;;;;;;;4991571;28;20410;-46
2024/03/23 13:22:11;;;;;;;239.67;78.70;;;;;;;;;;4990382;28;20468;-46
2024/03/23 13:24:37;;;;;;;245.57;84.77;;;;;;;;;;4995127;28;20982;-46
2024/03/23 13:27:04;;;;;;;238.27;77.47;;;;;;;;;;4994558;28;20420;-46
2024/03/23 13:29:30;;;;;;;237.87;75.00;;;;;;;;;;4994491;28;20498;-46
2024/03/23 13:31:56;;;;;;;236.17;74.40;;;;;;;;;;4987914;28;20511;-45
2024/03/23 13:34:22;;;;;;;236.32;74.60;;;;;;;;;;4994579;28;20439;-45
2024/03/23 13:36:48;;;;;;;231.37;71.47;;;;;;;;;;4993375;28;20185;-45
2024/03/23 13:39:15;;;;;;;233.50;77.85;;;;;;;;;;4994819;28;20418;-45
2024/03/23 13:41:42;;;;;;;237.68;83.00;;;;;;;;;;4994016;28;20229;-46
2024/03/23 13:44:10;;;;;;;233.90;75.13;;;;;;;;;;4992929;28;20201;-46
2024/03/23 13:46:36;;;;;;;233.77;74.00;;;;;;;;;;4994622;28;20946;-46
2024/03/23 13:49:02;;;;;;;237.63;81.00;;;;;;;;;;4994670;28;20455;-46
2024/03/23 13:51:28;;;;;;;235.00;75.27;;;;;;;;;;4994666;28;20412;-45
2024/03/23 13:53:54;;;;;;;232.50;72.30;;;;;;;;;;4994497;28;20816;-46
2024/03/23 13:56:21;;;;;;;234.07;75.00;;;;;;;;;;4994105;28;20458;-46
2024/03/23 13:58:47;;;;;;;236.77;82.30;;;;;;;;;;4994454;28;20419;-45
2024/03/23 14:01:14;;;;;;;231.00;74.00;;;;;;;;;;4994670;28;20981;-45
2024/03/23 14:03:40;;;;;;;231.70;75.78;;;;;;;;;;4994343;28;20451;-45